createdAt,value
2023-04-25T00:01:39.426Z,22.35
2023-04-25T00:04:09.109Z,22.33
2023-04-25T00:06:37.145Z,22.32
2023-04-25T00:09:10.019Z,22.30
2023-04-25T00:11:36.405Z,22.28
2023-04-25T00:14:03.441Z,22.28
2023-04-25T00:16:31.673Z,22.28
2023-04-25T00:18:59.646Z,22.27
2023-04-25T00:21:26.493Z,22.28
2023-04-25T00:23:56.119Z,22.26
2023-04-25T00:26:22.444Z,22.25
2023-04-25T00:28:48.928Z,22.25
2023-04-25T00:31:15.386Z,22.24
2023-04-25T00:33:41.708Z,22.22
2023-04-25T00:36:08.227Z,22.23
2023-04-25T00:38:34.536Z,22.20
2023-04-25T00:41:00.840Z,22.19
2023-04-25T00:43:27.355Z,22.17
2023-04-25T00:45:53.725Z,22.17
2023-04-25T00:48:21.872Z,22.15
2023-04-25T00:50:51.475Z,22.13
2023-04-25T00:53:17.800Z,22.11
2023-04-25T00:55:44.124Z,22.12
2023-04-25T00:58:10.429Z,22.12
2023-04-25T01:00:36.749Z,22.11
2023-04-25T01:03:03.731Z,22.09
2023-04-25T01:05:32.494Z,22.09
2023-04-25T01:07:58.796Z,22.07
2023-04-25T01:10:25.146Z,22.07
2023-04-25T01:12:53.036Z,22.06
2023-04-25T01:15:21.247Z,22.06
2023-04-25T01:17:48.321Z,22.05
2023-04-25T01:20:14.681Z,22.05
2023-04-25T01:22:41.228Z,22.04
2023-04-25T01:25:07.915Z,22.04
2023-04-25T01:27:34.239Z,22.04
2023-04-25T01:30:00.742Z,22.02
2023-04-25T01:32:27.399Z,22.02
2023-04-25T01:34:53.737Z,21.99
2023-04-25T01:37:20.284Z,21.99
2023-04-25T01:39:46.716Z,22.00
2023-04-25T01:42:13.573Z,21.99
2023-04-25T01:44:39.893Z,21.97
2023-04-25T01:47:06.313Z,21.98
2023-04-25T01:49:32.697Z,21.97
2023-04-25T01:51:59.032Z,21.95
2023-04-25T01:54:25.439Z,21.95
2023-04-25T01:56:52.148Z,21.95
2023-04-25T01:59:19.167Z,21.93
2023-04-25T02:01:45.668Z,21.93
2023-04-25T02:04:12.175Z,22.02
2023-04-25T02:06:38.608Z,22.18
2023-04-25T02:09:04.923Z,22.24
2023-04-25T02:11:31.248Z,22.29
2023-04-25T02:13:57.564Z,22.35
2023-04-25T02:16:24.415Z,22.39
2023-04-25T02:18:53.655Z,22.43
2023-04-25T02:21:20.027Z,22.48
2023-04-25T02:23:49.936Z,22.50
2023-04-25T02:26:16.707Z,22.51
2023-04-25T02:28:43.025Z,22.50
2023-04-25T02:31:09.429Z,22.53
2023-04-25T02:33:35.958Z,22.50
2023-04-25T02:36:02.285Z,22.49
2023-04-25T02:38:28.618Z,22.53
2023-04-25T02:40:54.948Z,22.62
2023-04-25T02:43:21.999Z,22.72
2023-04-25T02:45:48.660Z,22.80
2023-04-25T02:48:15.616Z,22.83
2023-04-25T02:50:41.992Z,22.84
2023-04-25T02:53:08.304Z,22.84
2023-04-25T02:55:34.677Z,22.83
2023-04-25T02:58:01.325Z,22.85
2023-04-25T03:00:27.948Z,22.86
2023-04-25T03:02:56.950Z,22.83
2023-04-25T03:05:23.341Z,22.82
2023-04-25T03:07:49.682Z,22.82
2023-04-25T03:10:16.261Z,22.81
2023-04-25T03:12:47.159Z,22.80
2023-04-25T03:15:13.486Z,22.82
2023-04-25T03:17:39.867Z,22.81
2023-04-25T03:20:06.549Z,22.80
2023-04-25T03:22:32.877Z,22.76
2023-04-25T03:24:59.189Z,22.76
2023-04-25T03:27:26.679Z,22.74
2023-04-25T03:29:53.002Z,22.71
2023-04-25T03:32:19.405Z,22.74
2023-04-25T03:34:45.839Z,22.76
2023-04-25T03:37:12.347Z,22.78
2023-04-25T03:39:39.397Z,22.78
2023-04-25T03:42:05.733Z,22.78
2023-04-25T03:44:32.062Z,22.76
2023-04-25T03:46:58.727Z,22.73
2023-04-25T03:49:25.601Z,22.71
2023-04-25T03:51:51.971Z,22.71
2023-04-25T03:54:18.373Z,22.74
2023-04-25T03:56:44.779Z,22.82
2023-04-25T03:59:11.094Z,22.88
2023-04-25T04:01:37.436Z,22.91
2023-04-25T04:04:03.875Z,22.94
2023-04-25T04:06:30.470Z,22.97
2023-04-25T04:08:57.637Z,22.97
2023-04-25T04:11:23.958Z,22.99
2023-04-25T04:13:50.567Z,22.97
2023-04-25T04:16:18.067Z,22.97
2023-04-25T04:18:44.636Z,22.93
2023-04-25T04:21:10.963Z,22.95
2023-04-25T04:23:39.693Z,22.93
2023-04-25T04:26:06.319Z,22.92
2023-04-25T04:28:32.709Z,22.91
2023-04-25T04:31:01.984Z,22.90
2023-04-25T04:33:31.233Z,22.88
2023-04-25T04:35:57.777Z,22.90
2023-04-25T04:38:24.893Z,22.88
2023-04-25T04:40:51.321Z,22.87
2023-04-25T04:43:18.091Z,22.87
2023-04-25T04:45:45.502Z,22.85
2023-04-25T04:48:14.971Z,22.85
2023-04-25T04:50:42.014Z,22.84
2023-04-25T04:53:08.339Z,22.83
2023-04-25T04:55:34.661Z,22.82
2023-04-25T04:58:01.097Z,22.79
2023-04-25T05:00:29.660Z,22.76
2023-04-25T05:02:56.696Z,22.72
2023-04-25T05:05:23.427Z,22.68
2023-04-25T05:07:49.751Z,22.66
2023-04-25T05:10:16.266Z,22.65
2023-04-25T05:12:42.599Z,22.73
2023-04-25T05:15:08.968Z,22.83
2023-04-25T05:17:35.546Z,22.88
2023-04-25T05:20:02.657Z,22.92
2023-04-25T05:22:28.976Z,22.91
2023-04-25T05:24:57.682Z,22.90
2023-04-25T05:27:24.522Z,22.89
2023-04-25T05:29:50.839Z,22.91
2023-04-25T05:32:18.059Z,22.89
2023-04-25T05:34:44.478Z,22.89
2023-04-25T05:37:10.938Z,22.89
2023-04-25T05:39:37.321Z,22.88
2023-04-25T05:42:04.800Z,22.89
2023-04-25T05:44:31.344Z,22.88
2023-04-25T05:46:58.990Z,22.88
2023-04-25T05:49:25.305Z,22.87
2023-04-25T05:51:51.633Z,22.88
2023-04-25T05:54:18.363Z,22.88
2023-04-25T05:56:44.694Z,22.87
2023-04-25T05:59:11.022Z,22.91
2023-04-25T06:01:37.422Z,22.93
2023-04-25T06:04:03.977Z,22.96
2023-04-25T06:06:31.131Z,22.95
2023-04-25T06:08:57.442Z,22.95
2023-04-25T06:11:23.752Z,22.95
2023-04-25T06:13:50.556Z,22.93
2023-04-25T06:16:17.167Z,22.92
2023-04-25T06:18:43.606Z,22.91
2023-04-25T06:21:10.002Z,22.88
2023-04-25T06:23:36.409Z,22.87
2023-04-25T06:26:02.720Z,22.88
2023-04-25T06:28:29.101Z,22.91
2023-04-25T06:30:55.483Z,22.99
2023-04-25T06:33:22.522Z,23.00
2023-04-25T06:35:48.881Z,22.78
2023-04-25T06:38:15.891Z,22.64
2023-04-25T06:40:42.424Z,22.57
2023-04-25T06:43:08.847Z,22.37
2023-04-25T06:45:35.233Z,22.49
2023-04-25T06:48:01.624Z,22.42
2023-04-25T06:50:28.002Z,22.46
2023-04-25T06:52:54.321Z,22.33
2023-04-25T06:55:20.735Z,22.51
2023-04-25T06:57:47.113Z,22.45
2023-04-25T07:00:13.836Z,22.53
2023-04-25T07:02:41.490Z,22.38
2023-04-25T07:05:07.980Z,22.37
2023-04-25T07:07:34.322Z,22.44
2023-04-25T07:10:01.461Z,22.42
2023-04-25T07:12:27.818Z,22.32
2023-04-25T07:14:54.142Z,22.35
2023-04-25T07:17:20.570Z,22.31
2023-04-25T07:19:46.885Z,22.38
2023-04-25T07:22:13.298Z,22.28
2023-04-25T07:24:39.744Z,22.27
2023-04-25T07:27:06.177Z,22.26
2023-04-25T07:29:32.771Z,22.23
2023-04-25T07:31:59.159Z,22.20
2023-04-25T07:34:25.508Z,22.05
2023-04-25T07:36:51.846Z,22.13
2023-04-25T07:39:18.174Z,22.22
2023-04-25T07:41:44.738Z,22.07
2023-04-25T07:44:11.347Z,22.27
2023-04-25T07:46:37.678Z,22.40
2023-04-25T07:49:04.001Z,22.56
2023-04-25T07:51:30.370Z,22.72
2023-04-25T07:53:56.713Z,22.80
2023-04-25T07:56:23.067Z,22.87
2023-04-25T07:58:49.700Z,22.92
2023-04-25T08:01:16.353Z,22.93
2023-04-25T08:03:42.982Z,22.99
2023-04-25T08:06:11.260Z,23.02
2023-04-25T08:08:37.789Z,23.01
2023-04-25T08:11:04.227Z,23.04
2023-04-25T08:13:30.551Z,23.01
2023-04-25T08:15:56.939Z,23.01
2023-04-25T08:18:23.353Z,23.02
2023-04-25T08:20:49.690Z,23.00
2023-04-25T08:23:16.194Z,22.95
2023-04-25T08:25:42.532Z,22.89
2023-04-25T08:28:08.862Z,22.70
2023-04-25T08:30:35.349Z,22.67
2023-04-25T08:33:01.739Z,22.65
2023-04-25T08:35:28.150Z,22.60
2023-04-25T08:37:54.647Z,22.63
2023-04-25T08:40:22.047Z,22.65
2023-04-25T08:42:48.413Z,22.63
2023-04-25T08:45:16.152Z,22.57
2023-04-25T08:47:42.625Z,22.54
2023-04-25T08:50:09.091Z,22.48
2023-04-25T08:52:36.980Z,22.58
2023-04-25T08:55:04.261Z,22.71
2023-04-25T08:57:31.889Z,22.84
2023-04-25T08:59:58.357Z,22.92
2023-04-25T09:02:25.013Z,23.00
2023-04-25T09:04:51.451Z,23.00
2023-04-25T09:07:21.988Z,23.03
2023-04-25T09:09:48.882Z,23.06
2023-04-25T09:12:15.372Z,23.07
2023-04-25T09:14:43.391Z,23.08
2023-04-25T09:17:09.892Z,23.08
2023-04-25T09:19:40.958Z,23.07
2023-04-25T09:22:08.056Z,23.08
2023-04-25T09:24:37.893Z,23.08
2023-04-25T09:27:04.776Z,23.05
2023-04-25T09:29:35.349Z,23.05
2023-04-25T09:32:12.378Z,23.14
2023-04-25T09:34:42.891Z,23.10
2023-04-25T09:37:12.310Z,23.07
2023-04-25T09:39:39.719Z,23.05
2023-04-25T09:42:06.372Z,22.96
2023-04-25T09:44:32.815Z,22.98
2023-04-25T09:47:00.196Z,23.00
2023-04-25T09:49:26.992Z,22.98
2023-04-25T09:51:59.295Z,22.96
2023-04-25T09:54:25.949Z,22.99
2023-04-25T09:56:52.635Z,22.99
2023-04-25T09:59:23.095Z,23.00
2023-04-25T10:01:51.203Z,23.00
2023-04-25T10:04:22.018Z,23.02
2023-04-25T10:06:50.222Z,22.99
2023-04-25T10:09:16.838Z,22.98
2023-04-25T10:11:43.352Z,22.93
2023-04-25T10:14:09.744Z,22.93
2023-04-25T10:16:36.224Z,22.93
2023-04-25T10:19:03.911Z,22.90
2023-04-25T10:21:31.643Z,22.97
2023-04-25T10:23:58.132Z,23.01
2023-04-25T10:26:24.725Z,23.06
2023-04-25T10:28:57.749Z,23.08
2023-04-25T10:31:24.133Z,23.11
2023-04-25T10:33:53.246Z,23.09
2023-04-25T10:36:21.856Z,23.09
2023-04-25T10:38:48.406Z,23.09
2023-04-25T10:41:14.725Z,23.07
2023-04-25T10:43:44.436Z,23.07
2023-04-25T10:46:37.319Z,23.07
2023-04-25T10:49:03.985Z,23.07
2023-04-25T10:51:47.384Z,23.04
2023-04-25T10:54:20.977Z,23.04
2023-04-25T10:56:47.305Z,23.04
2023-04-25T10:59:17.430Z,23.12
2023-04-25T11:01:47.987Z,23.34
2023-04-25T11:04:24.053Z,23.43
2023-04-25T11:09:52.623Z,23.51
2023-04-25T11:12:18.972Z,23.52
2023-04-25T11:14:37.937Z,23.51
2023-04-25T11:14:45.410Z,23.54
2023-04-25T11:17:12.173Z,23.57
2023-04-25T11:19:38.636Z,23.61
2023-04-25T11:22:04.947Z,23.64
2023-04-25T11:24:31.743Z,23.65
2023-04-25T11:27:00.914Z,23.68
2023-04-25T11:29:27.541Z,23.72
2023-04-25T11:31:54.334Z,23.75
2023-04-25T11:34:20.778Z,23.71
2023-04-25T11:36:47.157Z,23.56
2023-04-25T11:39:13.488Z,23.49
2023-04-25T11:41:41.426Z,23.49
2023-04-25T11:44:08.114Z,23.53
2023-04-25T11:46:37.628Z,23.56
2023-04-25T11:49:05.238Z,23.56
2023-04-25T11:51:32.765Z,23.57
2023-04-25T11:53:59.109Z,23.57
2023-04-25T11:56:25.432Z,23.60
2023-04-25T11:58:55.406Z,23.57
2023-04-25T12:01:35.875Z,23.56
2023-04-25T12:04:12.336Z,23.54
2023-04-25T12:06:41.939Z,23.53
2023-04-25T12:09:08.970Z,23.53
2023-04-25T12:11:41.945Z,23.51
2023-04-25T12:14:08.275Z,23.51
2023-04-25T12:16:41.754Z,23.51
2023-04-25T12:19:08.116Z,23.47
2023-04-25T12:21:38.825Z,23.52
2023-04-25T12:24:11.100Z,23.57
2023-04-25T12:26:53.909Z,23.66
2023-04-25T12:29:21.174Z,23.67
2023-04-25T12:31:48.707Z,23.65
2023-04-25T12:34:15.584Z,23.67
2023-04-25T12:36:41.924Z,23.64
2023-04-25T12:39:08.976Z,23.59
2023-04-25T12:41:35.348Z,23.52
2023-04-25T12:44:01.718Z,23.54
2023-04-25T12:46:28.089Z,23.51
2023-04-25T12:48:55.001Z,23.47
2023-04-25T12:51:25.812Z,23.44
2023-04-25T12:53:52.899Z,23.43
2023-04-25T12:56:21.439Z,23.39
2023-04-25T12:58:50.193Z,23.38
2023-04-25T13:01:16.641Z,23.37
2023-04-25T13:03:43.325Z,23.39
2023-04-25T13:06:09.915Z,23.41
2023-04-25T13:08:37.685Z,23.44
2023-04-25T13:11:04.743Z,23.47
2023-04-25T13:13:32.456Z,23.49
2023-04-25T13:15:59.047Z,23.51
2023-04-25T13:18:27.417Z,23.52
2023-04-25T13:20:54.090Z,23.50
2023-04-25T13:23:21.267Z,23.49
2023-04-25T13:25:47.814Z,23.47
2023-04-25T13:28:14.229Z,23.45
2023-04-25T13:30:40.629Z,23.46
2023-04-25T13:33:07.434Z,23.45
2023-04-25T13:35:34.148Z,23.45
2023-04-25T13:38:00.965Z,23.45
2023-04-25T13:40:27.880Z,23.44
2023-04-25T13:42:54.264Z,23.42
2023-04-25T13:45:20.986Z,23.41
2023-04-25T13:47:47.323Z,23.43
2023-04-25T13:50:14.567Z,23.43
2023-04-25T13:52:41.095Z,23.43
2023-04-25T13:55:08.107Z,23.43
2023-04-25T13:57:34.672Z,23.42
2023-04-25T14:00:05.693Z,23.40
2023-04-25T14:02:32.156Z,23.37
2023-04-25T14:04:58.670Z,23.34
2023-04-25T14:07:25.066Z,23.31
2023-04-25T14:09:51.403Z,23.25
2023-04-25T14:12:17.750Z,23.21
2023-04-25T14:14:44.114Z,23.19
2023-04-25T14:17:10.873Z,23.14
2023-04-25T14:19:39.502Z,23.12
2023-04-25T14:22:05.881Z,23.10
2023-04-25T14:24:32.192Z,23.09
2023-04-25T14:26:58.555Z,23.12
2023-04-25T14:29:24.875Z,23.13
2023-04-25T14:31:51.388Z,23.21
2023-04-25T14:34:17.886Z,23.25
2023-04-25T14:36:44.239Z,23.26
2023-04-25T14:39:11.026Z,23.25
2023-04-25T14:41:37.366Z,23.24
2023-04-25T14:44:03.686Z,23.26
2023-04-25T14:46:30.014Z,23.26
2023-04-25T14:48:57.188Z,23.24
2023-04-25T14:51:23.669Z,23.29
2023-04-25T14:53:50.221Z,23.30
2023-04-25T14:56:16.724Z,23.31
2023-04-25T14:58:43.113Z,23.39
2023-04-25T15:01:09.846Z,23.34
2023-04-25T15:03:36.517Z,23.34
2023-04-25T15:06:03.001Z,23.35
2023-04-25T15:08:29.408Z,23.42
2023-04-25T15:10:55.818Z,23.44
2023-04-25T15:13:22.203Z,23.46
2023-04-25T15:15:52.068Z,23.45
2023-04-25T15:18:19.203Z,23.47
2023-04-25T15:20:45.564Z,23.44
2023-04-25T15:23:12.950Z,23.43
2023-04-25T15:25:39.956Z,23.45
2023-04-25T15:28:06.450Z,23.42
2023-04-25T15:30:32.801Z,23.39
2023-04-25T15:32:59.225Z,23.36
2023-04-25T15:35:25.600Z,23.37
2023-04-25T15:37:52.220Z,23.34
2023-04-25T15:40:18.559Z,23.33
2023-04-25T15:42:48.746Z,23.32
2023-04-25T15:45:15.544Z,23.32
2023-04-25T15:47:42.063Z,23.36
2023-04-25T15:50:09.379Z,23.41
2023-04-25T15:52:35.954Z,23.41
2023-04-25T15:55:02.435Z,23.42
2023-04-25T15:57:28.798Z,23.49
2023-04-25T15:59:55.216Z,23.50
2023-04-25T16:02:21.656Z,23.46
2023-04-25T16:04:48.318Z,23.45
2023-04-25T16:07:14.754Z,23.45
2023-04-25T16:09:41.093Z,23.44
2023-04-25T16:12:08.439Z,23.44
2023-04-25T16:14:34.885Z,23.46
2023-04-25T16:17:01.224Z,23.49
2023-04-25T16:19:27.540Z,23.47
2023-04-25T16:21:53.873Z,23.47
2023-04-25T16:24:20.267Z,23.46
2023-04-25T16:26:46.605Z,23.44
2023-04-25T16:29:14.654Z,23.42
2023-04-25T16:31:41.988Z,23.39
2023-04-25T16:34:08.362Z,23.36
2023-04-25T16:36:34.697Z,23.36
2023-04-25T16:39:01.250Z,23.31
2023-04-25T16:41:27.838Z,23.28
2023-04-25T16:43:54.359Z,23.31
2023-04-25T16:46:21.559Z,23.29
2023-04-25T16:48:48.859Z,23.28
2023-04-25T16:51:16.072Z,23.25
2023-04-25T16:53:42.680Z,23.24
2023-04-25T16:56:09.058Z,23.25
2023-04-25T16:58:35.487Z,23.19
2023-04-25T17:01:02.153Z,23.17
2023-04-25T17:03:28.699Z,23.15
2023-04-25T17:05:57.914Z,23.17
2023-04-25T17:08:24.758Z,23.11
2023-04-25T17:10:51.301Z,23.14
2023-04-25T17:13:17.861Z,23.17
2023-04-25T17:15:44.329Z,23.23
2023-04-25T17:18:10.938Z,23.27
2023-04-25T17:20:37.566Z,23.26
2023-04-25T17:23:03.944Z,23.22
2023-04-25T17:25:30.325Z,23.20
2023-04-25T17:27:56.639Z,23.20
2023-04-25T17:30:23.700Z,23.23
2023-04-25T17:32:50.115Z,23.19
2023-04-25T17:35:17.044Z,23.18
2023-04-25T17:37:43.824Z,23.16
2023-04-25T17:40:12.934Z,23.15
2023-04-25T17:42:39.572Z,23.13
2023-04-25T17:45:06.302Z,23.09
2023-04-25T17:47:32.705Z,23.05
2023-04-25T17:49:59.044Z,23.02
2023-04-25T17:52:25.717Z,22.99
2023-04-25T17:54:52.314Z,22.97
2023-04-25T17:57:18.848Z,22.97
2023-04-25T17:59:45.249Z,22.92
2023-04-25T18:02:11.698Z,22.90
2023-04-25T18:04:38.385Z,22.87
2023-04-25T18:07:05.805Z,22.88
2023-04-25T18:09:32.405Z,22.84
2023-04-25T18:11:58.748Z,22.82
2023-04-25T18:14:25.394Z,22.85
2023-04-25T18:16:52.734Z,22.86
2023-04-25T18:19:21.597Z,22.97
2023-04-25T18:21:51.926Z,23.17
2023-04-25T18:24:18.301Z,23.36
2023-04-25T18:26:45.012Z,23.53
2023-04-25T18:29:18.948Z,23.65
2023-04-25T18:31:56.282Z,23.80
2023-04-25T18:34:27.293Z,23.97
2023-04-25T18:36:59.787Z,24.13
2023-04-25T18:39:27.017Z,24.31
2023-04-25T18:42:00.062Z,24.29
2023-04-25T18:44:33.616Z,24.39
2023-04-25T18:47:00.238Z,24.51
2023-04-25T18:49:28.349Z,24.58
2023-04-25T18:51:56.172Z,24.60
2023-04-25T18:54:22.736Z,24.66
2023-04-25T18:56:49.074Z,24.71
2023-04-25T18:59:17.035Z,24.73
2023-04-25T19:01:43.602Z,24.74
2023-04-25T19:04:10.161Z,24.77
2023-04-25T19:06:36.615Z,24.79
2023-04-25T19:09:04.220Z,24.79
2023-04-25T19:11:30.709Z,24.81
2023-04-25T19:13:57.410Z,24.79
2023-04-25T19:16:25.997Z,24.77
2023-04-25T19:18:53.531Z,24.79
2023-04-25T19:21:20.064Z,24.78
2023-04-25T19:23:48.466Z,24.78
2023-04-25T19:26:14.833Z,24.79
2023-04-25T19:28:42.812Z,24.81
2023-04-25T19:31:09.194Z,24.83
2023-04-25T19:33:35.572Z,24.86
2023-04-25T19:36:02.139Z,24.88
2023-04-25T19:38:28.937Z,24.89
2023-04-25T19:40:55.244Z,24.89
2023-04-25T19:43:21.972Z,24.85
2023-04-25T19:45:48.386Z,24.83
2023-04-25T19:48:15.289Z,24.81
2023-04-25T19:50:41.800Z,24.81
2023-04-25T19:53:09.271Z,24.82
2023-04-25T19:55:35.725Z,24.79
2023-04-25T19:58:03.263Z,24.77
2023-04-25T20:00:29.581Z,24.76
2023-04-25T20:02:56.661Z,24.72
2023-04-25T20:05:23.529Z,24.70
2023-04-25T20:07:50.409Z,24.68
2023-04-25T20:10:17.379Z,24.64
2023-04-25T20:12:44.063Z,24.64
2023-04-25T20:15:11.444Z,24.53
2023-04-25T20:17:42.336Z,24.39
2023-04-25T20:20:09.912Z,24.39
2023-04-25T20:22:37.069Z,24.37
2023-04-25T20:25:04.444Z,24.38
2023-04-25T20:27:31.411Z,24.37
2023-04-25T20:29:58.714Z,24.34
2023-04-25T20:32:25.057Z,24.30
2023-04-25T20:34:51.598Z,24.46
2023-04-25T20:37:17.946Z,24.56
2023-04-25T20:39:44.273Z,24.60
2023-04-25T20:42:10.663Z,24.59
2023-04-25T20:44:40.868Z,24.57
2023-04-25T20:47:09.434Z,24.61
2023-04-25T20:49:36.494Z,24.58
2023-04-25T20:52:03.065Z,24.57
2023-04-25T20:54:30.955Z,24.55
2023-04-25T20:56:57.629Z,24.54
2023-04-25T20:59:25.316Z,24.52
2023-04-25T21:01:51.708Z,24.50
2023-04-25T21:04:18.075Z,24.43
2023-04-25T21:06:44.465Z,24.42
2023-04-25T21:09:11.026Z,24.40
2023-04-25T21:11:38.306Z,24.40
2023-04-25T21:14:05.434Z,24.30
2023-04-25T21:16:35.130Z,24.22
2023-04-25T21:19:02.253Z,24.26
2023-04-25T21:21:28.570Z,24.24
2023-04-25T21:23:55.380Z,24.26
2023-04-25T21:26:22.116Z,24.25
2023-04-25T21:28:48.440Z,24.18
2023-04-25T21:31:14.927Z,24.08
2023-04-25T21:33:41.388Z,24.11
2023-04-25T21:36:08.114Z,23.99
2023-04-25T21:38:34.500Z,23.95
2023-04-25T21:41:00.851Z,24.01
2023-04-25T21:43:27.187Z,24.04
2023-04-25T21:46:18.962Z,24.04
2023-04-25T21:48:39.911Z,24.01
2023-04-25T21:51:06.241Z,24.03
2023-04-25T21:53:32.851Z,24.01
2023-04-25T21:55:59.186Z,23.98
2023-04-25T21:58:25.524Z,23.95
2023-04-25T22:00:51.909Z,23.93
2023-04-25T22:03:20.295Z,23.90
2023-04-25T22:05:46.987Z,23.93
2023-04-25T22:08:14.185Z,23.89
2023-04-25T22:10:40.549Z,23.86
2023-04-25T22:13:06.931Z,23.77
2023-04-25T22:15:33.266Z,23.80
2023-04-25T22:17:59.615Z,23.71
2023-04-25T22:20:26.778Z,23.50
2023-04-25T22:22:53.535Z,23.43
2023-04-25T22:25:21.140Z,23.38
2023-04-25T22:27:48.081Z,23.35
2023-04-25T22:30:14.399Z,23.33
2023-04-25T22:32:40.981Z,23.29
2023-04-25T22:35:07.475Z,23.28
2023-04-25T22:37:35.777Z,23.24
2023-04-25T22:40:05.630Z,23.20
2023-04-25T22:42:36.965Z,23.19
2023-04-25T22:45:04.547Z,23.17
2023-04-25T22:47:30.913Z,23.12
2023-04-25T22:49:57.889Z,23.10
2023-04-25T22:52:24.244Z,23.08
2023-04-25T22:54:50.572Z,23.06
2023-04-25T22:57:16.962Z,23.05
2023-04-25T22:59:43.279Z,23.03
2023-04-25T23:02:10.535Z,23.02
2023-04-25T23:04:37.848Z,23.01
2023-04-25T23:07:04.250Z,23.00
2023-04-25T23:09:30.589Z,22.97
2023-04-25T23:11:57.333Z,22.97
2023-04-25T23:14:24.107Z,22.96
2023-04-25T23:16:50.553Z,22.93
2023-04-25T23:19:16.958Z,22.91
2023-04-25T23:21:43.301Z,22.88
2023-04-25T23:24:09.839Z,22.87
2023-04-25T23:26:36.189Z,22.85
2023-04-25T23:29:02.504Z,22.83
2023-04-25T23:31:29.518Z,22.79
2023-04-25T23:33:56.017Z,22.79
2023-04-25T23:36:22.348Z,22.76
2023-04-25T23:38:50.347Z,22.75
2023-04-25T23:41:16.973Z,22.73
2023-04-25T23:43:43.318Z,22.70
2023-04-25T23:46:09.724Z,22.68
2023-04-25T23:48:36.339Z,22.65
2023-04-25T23:51:02.737Z,22.63
2023-04-25T23:53:29.066Z,22.63
2023-04-25T23:55:55.368Z,22.63
2023-04-25T23:58:21.722Z,22.64
